sensor_id;sensor_type;location;lat;lon;timestamp;pressure;altitude;pressure_sealevel;temperature;humidity
62978;BME280;49073;42.352;23.808;2023-03-03T00:01:08;94801.78;;;2.05;100.00
62978;BME280;49073;42.352;23.808;2023-03-03T00:04:09;94795.06;;;1.99;100.00
62978;BME280;49073;42.352;23.808;2023-03-03T00:07:10;94796.84;;;1.89;100.00
62978;BME280;49073;42.352;23.808;2023-03-03T00:10:12;94779.09;;;1.95;100.00
62978;BME280;49073;42.352;23.808;2023-03-03T00:13:21;94780.75;;;2.05;100.00
62978;BME280;49073;42.352;23.808;2023-03-03T00:19:37;94776.94;;;1.97;100.00
62978;BME280;49073;42.352;23.808;2023-03-03T00:22:40;94772.69;;;1.87;100.00
62978;BME280;49073;42.352;23.808;2023-03-03T00:25:44;94777.97;;;1.87;100.00
62978;BME280;49073;42.352;23.808;2023-03-03T00:28:50;94769.50;;;1.91;100.00
62978;BME280;49073;42.352;23.808;2023-03-03T00:31:51;94761.00;;;1.94;100.00
62978;BME280;49073;42.352;23.808;2023-03-03T00:34:54;94765.84;;;2.00;100.00
62978;BME280;49073;42.352;23.808;2023-03-03T00:37:57;94765.84;;;2.00;100.00
62978;BME280;49073;42.352;23.808;2023-03-03T00:40:59;94752.53;;;1.97;100.00
62978;BME280;49073;42.352;23.808;2023-03-03T00:47:42;94746.09;;;2.03;100.00
62978;BME280;49073;42.352;23.808;2023-03-03T00:50:43;94739.75;;;2.04;100.00
62978;BME280;49073;42.352;23.808;2023-03-03T00:53:43;94742.69;;;2.02;100.00
62978;BME280;49073;42.352;23.808;2023-03-03T00:56:44;94734.63;;;1.99;100.00
62978;BME280;49073;42.352;23.808;2023-03-03T00:59:45;94735.97;;;1.96;100.00
62978;BME280;49073;42.352;23.808;2023-03-03T01:02:46;94742.88;;;2.06;100.00
62978;BME280;49073;42.352;23.808;2023-03-03T01:05:48;94736.66;;;2.02;100.00
62978;BME280;49073;42.352;23.808;2023-03-03T01:08:48;94738.31;;;1.98;100.00
62978;BME280;49073;42.352;23.808;2023-03-03T01:11:50;94727.94;;;1.93;100.00
62978;BME280;49073;42.352;23.808;2023-03-03T01:14:51;94727.13;;;1.92;100.00
62978;BME280;49073;42.352;23.808;2023-03-03T01:17:54;94728.09;;;1.96;100.00
62978;BME280;49073;42.352;23.808;2023-03-03T01:20:55;94726.31;;;2.06;100.00
62978;BME280;49073;42.352;23.808;2023-03-03T01:23:55;94720.22;;;1.96;100.00
62978;BME280;49073;42.352;23.808;2023-03-03T01:26:56;94719.13;;;1.97;100.00
62978;BME280;49073;42.352;23.808;2023-03-03T01:29:57;94716.69;;;2.01;100.00
62978;BME280;49073;42.352;23.808;2023-03-03T01:32:58;94713.16;;;1.83;100.00
62978;BME280;49073;42.352;23.808;2023-03-03T01:35:58;94713.50;;;1.90;100.00
62978;BME280;49073;42.352;23.808;2023-03-03T01:38:59;94712.88;;;1.84;100.00
62978;BME280;49073;42.352;23.808;2023-03-03T01:42:01;94710.25;;;1.84;100.00
62978;BME280;49073;42.352;23.808;2023-03-03T01:45:26;94703.00;;;1.90;100.00
62978;BME280;49073;42.352;23.808;2023-03-03T01:48:33;94707.88;;;1.97;100.00
62978;BME280;49073;42.352;23.808;2023-03-03T01:51:45;94709.34;;;1.89;100.00
62978;BME280;49073;42.352;23.808;2023-03-03T01:55:14;94701.44;;;1.89;100.00
62978;BME280;49073;42.352;23.808;2023-03-03T01:58:26;94700.69;;;1.88;100.00
62978;BME280;49073;42.352;23.808;2023-03-03T02:01:30;94698.56;;;1.77;100.00
62978;BME280;49073;42.352;23.808;2023-03-03T02:04:33;94695.25;;;1.71;100.00
62978;BME280;49073;42.352;23.808;2023-03-03T02:07:35;94694.78;;;1.69;100.00
62978;BME280;49073;42.352;23.808;2023-03-03T02:10:36;94702.94;;;1.81;100.00
62978;BME280;49073;42.352;23.808;2023-03-03T02:13:37;94698.28;;;1.78;100.00
62978;BME280;49073;42.352;23.808;2023-03-03T02:16:39;94703.13;;;1.71;100.00
62978;BME280;49073;42.352;23.808;2023-03-03T02:20:02;94695.75;;;1.73;100.00
62978;BME280;49073;42.352;23.808;2023-03-03T02:23:19;94697.50;;;1.78;100.00
62978;BME280;49073;42.352;23.808;2023-03-03T02:26:24;94691.97;;;1.79;100.00
62978;BME280;49073;42.352;23.808;2023-03-03T02:29:25;94701.41;;;1.66;100.00
62978;BME280;49073;42.352;23.808;2023-03-03T02:32:25;94687.81;;;1.64;100.00
62978;BME280;49073;42.352;23.808;2023-03-03T02:35:36;94683.63;;;1.63;100.00
62978;BME280;49073;42.352;23.808;2023-03-03T02:38:42;94681.47;;;1.65;100.00
62978;BME280;49073;42.352;23.808;2023-03-03T02:45:19;94689.25;;;1.56;100.00
62978;BME280;49073;42.352;23.808;2023-03-03T02:48:21;94683.91;;;1.62;100.00
62978;BME280;49073;42.352;23.808;2023-03-03T02:51:22;94684.88;;;1.66;100.00
62978;BME280;49073;42.352;23.808;2023-03-03T02:54:24;94691.38;;;1.68;100.00
62978;BME280;49073;42.352;23.808;2023-03-03T02:57:25;94682.53;;;1.64;100.00
62978;BME280;49073;42.352;23.808;2023-03-03T03:00:26;94686.25;;;1.63;100.00
62978;BME280;49073;42.352;23.808;2023-03-03T03:03:26;94686.31;;;1.72;100.00
62978;BME280;49073;42.352;23.808;2023-03-03T03:06:27;94679.22;;;1.72;100.00
62978;BME280;49073;42.352;23.808;2023-03-03T03:09:27;94680.53;;;1.84;100.00
62978;BME280;49073;42.352;23.808;2023-03-03T03:12:28;94673.63;;;1.88;100.00
62978;BME280;49073;42.352;23.808;2023-03-03T03:15:28;94681.47;;;2.02;100.00
62978;BME280;49073;42.352;23.808;2023-03-03T03:18:29;94684.91;;;1.88;100.00
62978;BME280;49073;42.352;23.808;2023-03-03T03:21:30;94682.09;;;1.85;100.00
62978;BME280;49073;42.352;23.808;2023-03-03T03:24:30;94681.22;;;1.89;100.00
62978;BME280;49073;42.352;23.808;2023-03-03T03:27:31;94665.44;;;1.89;100.00
62978;BME280;49073;42.352;23.808;2023-03-03T03:30:31;94671.22;;;2.00;100.00
62978;BME280;49073;42.352;23.808;2023-03-03T03:33:32;94674.88;;;1.91;100.00
62978;BME280;49073;42.352;23.808;2023-03-03T03:36:34;94668.38;;;1.88;100.00
62978;BME280;49073;42.352;23.808;2023-03-03T03:39:35;94666.69;;;1.92;100.00
62978;BME280;49073;42.352;23.808;2023-03-03T03:42:35;94669.03;;;1.94;100.00
62978;BME280;49073;42.352;23.808;2023-03-03T03:45:44;94665.50;;;1.98;100.00
62978;BME280;49073;42.352;23.808;2023-03-03T03:48:45;94664.97;;;1.87;100.00
62978;BME280;49073;42.352;23.808;2023-03-03T03:51:46;94660.69;;;1.92;100.00
62978;BME280;49073;42.352;23.808;2023-03-03T03:54:46;94663.78;;;1.94;100.00
62978;BME280;49073;42.352;23.808;2023-03-03T03:57:47;94663.31;;;1.92;100.00
62978;BME280;49073;42.352;23.808;2023-03-03T04:00:48;94671.78;;;1.88;100.00
62978;BME280;49073;42.352;23.808;2023-03-03T04:03:49;94660.69;;;1.92;100.00
62978;BME280;49073;42.352;23.808;2023-03-03T04:06:50;94666.34;;;1.85;100.00
62978;BME280;49073;42.352;23.808;2023-03-03T04:09:51;94672.50;;;2.03;100.00
62978;BME280;49073;42.352;23.808;2023-03-03T04:12:51;94659.56;;;2.07;100.00
62978;BME280;49073;42.352;23.808;2023-03-03T04:15:52;94669.28;;;2.06;100.00
62978;BME280;49073;42.352;23.808;2023-03-03T04:18:52;94663.91;;;2.11;100.00
62978;BME280;49073;42.352;23.808;2023-03-03T04:21:53;94666.13;;;2.18;100.00
62978;BME280;49073;42.352;23.808;2023-03-03T04:24:53;94665.22;;;2.23;100.00
62978;BME280;49073;42.352;23.808;2023-03-03T04:27:54;94667.78;;;2.14;100.00
62978;BME280;49073;42.352;23.808;2023-03-03T04:30:54;94667.19;;;2.17;100.00
62978;BME280;49073;42.352;23.808;2023-03-03T04:33:55;94663.34;;;2.00;100.00
62978;BME280;49073;42.352;23.808;2023-03-03T04:36:55;94665.44;;;2.12;100.00
62978;BME280;49073;42.352;23.808;2023-03-03T04:39:56;94666.84;;;2.10;100.00
62978;BME280;49073;42.352;23.808;2023-03-03T04:42:56;94668.41;;;2.11;100.00
62978;BME280;49073;42.352;23.808;2023-03-03T04:45:57;94670.16;;;2.01;100.00
62978;BME280;49073;42.352;23.808;2023-03-03T04:48:57;94674.19;;;1.99;100.00
62978;BME280;49073;42.352;23.808;2023-03-03T04:51:58;94661.31;;;1.97;100.00
62978;BME280;49073;42.352;23.808;2023-03-03T04:54:58;94667.06;;;1.99;100.00
62978;BME280;49073;42.352;23.808;2023-03-03T04:57:59;94662.72;;;1.95;100.00
62978;BME280;49073;42.352;23.808;2023-03-03T05:00:59;94665.34;;;1.95;100.00
62978;BME280;49073;42.352;23.808;2023-03-03T05:04:00;94665.44;;;1.89;100.00
62978;BME280;49073;42.352;23.808;2023-03-03T05:07:01;94665.94;;;1.92;100.00
62978;BME280;49073;42.352;23.808;2023-03-03T05:10:01;94678.94;;;1.97;100.00
62978;BME280;49073;42.352;23.808;2023-03-03T05:13:02;94671.06;;;1.97;100.00
62978;BME280;49073;42.352;23.808;2023-03-03T05:16:04;94674.72;;;2.10;100.00
62978;BME280;49073;42.352;23.808;2023-03-03T05:19:05;94680.16;;;1.91;100.00
62978;BME280;49073;42.352;23.808;2023-03-03T05:22:05;94681.22;;;1.89;100.00
62978;BME280;49073;42.352;23.808;2023-03-03T05:25:06;94677.31;;;1.87;100.00
62978;BME280;49073;42.352;23.808;2023-03-03T05:28:08;94671.69;;;1.80;100.00
62978;BME280;49073;42.352;23.808;2023-03-03T05:31:10;94673.97;;;1.95;100.00
62978;BME280;49073;42.352;23.808;2023-03-03T05:34:11;94673.38;;;1.76;100.00
62978;BME280;49073;42.352;23.808;2023-03-03T05:37:11;94676.19;;;1.79;100.00
62978;BME280;49073;42.352;23.808;2023-03-03T05:40:13;94673.34;;;1.89;100.00
62978;BME280;49073;42.352;23.808;2023-03-03T05:43:14;94677.81;;;1.89;100.00
62978;BME280;49073;42.352;23.808;2023-03-03T05:46:15;94684.13;;;1.88;100.00
62978;BME280;49073;42.352;23.808;2023-03-03T05:49:16;94682.28;;;1.88;100.00
62978;BME280;49073;42.352;23.808;2023-03-03T05:52:16;94687.47;;;2.02;100.00
62978;BME280;49073;42.352;23.808;2023-03-03T05:55:18;94688.19;;;1.94;100.00
62978;BME280;49073;42.352;23.808;2023-03-03T05:58:20;94688.78;;;1.91;100.00
62978;BME280;49073;42.352;23.808;2023-03-03T06:01:21;94691.13;;;1.93;100.00
62978;BME280;49073;42.352;23.808;2023-03-03T06:04:21;94697.63;;;1.95;100.00
62978;BME280;49073;42.352;23.808;2023-03-03T06:07:22;94687.53;;;1.88;100.00
62978;BME280;49073;42.352;23.808;2023-03-03T06:10:22;94696.31;;;1.84;100.00
62978;BME280;49073;42.352;23.808;2023-03-03T06:13:23;94699.91;;;1.88;100.00
62978;BME280;49073;42.352;23.808;2023-03-03T06:16:24;94700.09;;;1.92;100.00
62978;BME280;49073;42.352;23.808;2023-03-03T06:19:25;94701.44;;;1.89;100.00
62978;BME280;49073;42.352;23.808;2023-03-03T06:22:25;94699.91;;;1.88;100.00
62978;BME280;49073;42.352;23.808;2023-03-03T06:25:26;94692.09;;;1.97;100.00
62978;BME280;49073;42.352;23.808;2023-03-03T06:28:27;94701.66;;;1.93;100.00
62978;BME280;49073;42.352;23.808;2023-03-03T06:31:27;94697.09;;;1.84;100.00
62978;BME280;49073;42.352;23.808;2023-03-03T06:34:28;94705.47;;;1.86;100.00
62978;BME280;49073;42.352;23.808;2023-03-03T06:37:28;94697.63;;;1.95;100.00
62978;BME280;49073;42.352;23.808;2023-03-03T06:40:29;94702.97;;;2.04;100.00
62978;BME280;49073;42.352;23.808;2023-03-03T06:43:30;94703.72;;;2.04;100.00
62978;BME280;49073;42.352;23.808;2023-03-03T06:46:30;94698.56;;;2.13;100.00
62978;BME280;49073;42.352;23.808;2023-03-03T06:49:30;94714.34;;;1.99;100.00
62978;BME280;49073;42.352;23.808;2023-03-03T06:52:31;94713.47;;;2.04;100.00
62978;BME280;49073;42.352;23.808;2023-03-03T06:55:32;94718.34;;;2.11;100.00
62978;BME280;49073;42.352;23.808;2023-03-03T06:58:33;94711.69;;;2.13;100.00
62978;BME280;49073;42.352;23.808;2023-03-03T07:01:36;94707.88;;;2.20;100.00
62978;BME280;49073;42.352;23.808;2023-03-03T07:04:37;94712.53;;;2.23;100.00
62978;BME280;49073;42.352;23.808;2023-03-03T07:07:38;94702.19;;;2.03;100.00
62978;BME280;49073;42.352;23.808;2023-03-03T07:10:39;94700.22;;;2.09;100.00
62978;BME280;49073;42.352;23.808;2023-03-03T07:13:45;94713.00;;;2.02;100.00
62978;BME280;49073;42.352;23.808;2023-03-03T07:16:51;94709.38;;;2.12;100.00
62978;BME280;49073;42.352;23.808;2023-03-03T07:19:54;94710.50;;;2.20;100.00
62978;BME280;49073;42.352;23.808;2023-03-03T07:22:54;94713.06;;;2.11;100.00
62978;BME280;49073;42.352;23.808;2023-03-03T07:25:55;94712.53;;;2.00;100.00
62978;BME280;49073;42.352;23.808;2023-03-03T07:28:59;94713.28;;;2.00;100.00
62978;BME280;49073;42.352;23.808;2023-03-03T07:32:00;94715.63;;;2.02;100.00
62978;BME280;49073;42.352;23.808;2023-03-03T07:35:28;94705.66;;;2.13;100.00
62978;BME280;49073;42.352;23.808;2023-03-03T07:38:34;94709.19;;;2.08;100.00
62978;BME280;49073;42.352;23.808;2023-03-03T07:41:35;94706.19;;;2.01;100.00
62978;BME280;49073;42.352;23.808;2023-03-03T07:44:36;94712.88;;;2.07;100.00
62978;BME280;49073;42.352;23.808;2023-03-03T07:47:37;94705.00;;;2.07;100.00
62978;BME280;49073;42.352;23.808;2023-03-03T07:50:39;94705.47;;;2.09;100.00
62978;BME280;49073;42.352;23.808;2023-03-03T07:53:40;94711.78;;;2.22;100.00
62978;BME280;49073;42.352;23.808;2023-03-03T07:56:40;94703.22;;;2.16;100.00
62978;BME280;49073;42.352;23.808;2023-03-03T07:59:46;94700.53;;;2.30;100.00
62978;BME280;49073;42.352;23.808;2023-03-03T08:03:01;94702.50;;;2.25;100.00
62978;BME280;49073;42.352;23.808;2023-03-03T08:10:07;94694.88;;;2.37;100.00
62978;BME280;49073;42.352;23.808;2023-03-03T08:12:58;94695.63;;;2.38;100.00
62978;BME280;49073;42.352;23.808;2023-03-03T08:19:10;94688.75;;;2.51;100.00
62978;BME280;49073;42.352;23.808;2023-03-03T08:22:14;94691.38;;;2.51;100.00
62978;BME280;49073;42.352;23.808;2023-03-03T08:25:15;94685.44;;;2.45;100.00
62978;BME280;49073;42.352;23.808;2023-03-03T08:28:16;94692.53;;;2.36;100.00
62978;BME280;49073;42.352;23.808;2023-03-03T08:31:18;94686.06;;;2.42;100.00
62978;BME280;49073;42.352;23.808;2023-03-03T08:34:18;94691.06;;;2.52;100.00
62978;BME280;49073;42.352;23.808;2023-03-03T08:37:19;94691.19;;;2.70;100.00
62978;BME280;49073;42.352;23.808;2023-03-03T08:40:20;94673.94;;;2.64;100.00
62978;BME280;49073;42.352;23.808;2023-03-03T08:43:20;94675.50;;;2.65;100.00
62978;BME280;49073;42.352;23.808;2023-03-03T08:46:22;94675.72;;;2.45;100.00
62978;BME280;49073;42.352;23.808;2023-03-03T08:49:22;94678.38;;;2.54;100.00
62978;BME280;49073;42.352;23.808;2023-03-03T08:52:23;94682.88;;;2.54;100.00
62978;BME280;49073;42.352;23.808;2023-03-03T08:55:23;94683.97;;;2.53;100.00
62978;BME280;49073;42.352;23.808;2023-03-03T08:58:24;94676.56;;;2.64;100.00
62978;BME280;49073;42.352;23.808;2023-03-03T09:01:25;94672.38;;;2.54;100.00
62978;BME280;49073;42.352;23.808;2023-03-03T09:04:25;94685.91;;;2.70;100.00
62978;BME280;49073;42.352;23.808;2023-03-03T09:07:27;94681.00;;;2.77;100.00
62978;BME280;49073;42.352;23.808;2023-03-03T09:10:28;94675.22;;;3.07;100.00
62978;BME280;49073;42.352;23.808;2023-03-03T09:13:30;94668.94;;;2.85;100.00
62978;BME280;49073;42.352;23.808;2023-03-03T09:16:36;94675.50;;;2.96;100.00
62978;BME280;49073;42.352;23.808;2023-03-03T09:19:38;94668.72;;;3.04;100.00
62978;BME280;49073;42.352;23.808;2023-03-03T09:22:38;94679.09;;;3.09;100.00
62978;BME280;49073;42.352;23.808;2023-03-03T09:25:39;94674.31;;;3.11;100.00
62978;BME280;49073;42.352;23.808;2023-03-03T09:28:41;94669.03;;;3.11;100.00
62978;BME280;49073;42.352;23.808;2023-03-03T09:31:48;94669.03;;;3.11;100.00
62978;BME280;49073;42.352;23.808;2023-03-03T09:34:48;94663.00;;;3.11;100.00
62978;BME280;49073;42.352;23.808;2023-03-03T09:37:50;94667.16;;;3.03;100.00
62978;BME280;49073;42.352;23.808;2023-03-03T09:40:55;94666.06;;;3.04;100.00
62978;BME280;49073;42.352;23.808;2023-03-03T09:47:34;94669.53;;;3.22;100.00
62978;BME280;49073;42.352;23.808;2023-03-03T09:50:59;94667.53;;;3.19;100.00
62978;BME280;49073;42.352;23.808;2023-03-03T09:54:16;94669.91;;;3.38;100.00
62978;BME280;49073;42.352;23.808;2023-03-03T09:57:50;94668.81;;;3.39;100.00
62978;BME280;49073;42.352;23.808;2023-03-03T10:24:46;94644.38;;;3.74;100.00
62978;BME280;49073;42.352;23.808;2023-03-03T10:37:59;94634.75;;;4.04;100.00
62978;BME280;49073;42.352;23.808;2023-03-03T10:51:42;94625.31;;;3.77;100.00
62978;BME280;49073;42.352;23.808;2023-03-03T10:58:47;94624.69;;;3.89;99.29
62978;BME280;49073;42.352;23.808;2023-03-03T11:01:57;94612.56;;;4.14;99.07
62978;BME280;49073;42.352;23.808;2023-03-03T11:08:21;94604.97;;;3.95;97.58
62978;BME280;49073;42.352;23.808;2023-03-03T11:14:48;94602.44;;;4.34;97.00
62978;BME280;49073;42.352;23.808;2023-03-03T11:24:26;94594.88;;;4.06;96.89
62978;BME280;49073;42.352;23.808;2023-03-03T11:34:02;94582.16;;;4.08;98.10
62978;BME280;49073;42.352;23.808;2023-03-03T11:37:20;94575.88;;;4.30;97.72
62978;BME280;49073;42.352;23.808;2023-03-03T11:40:28;94572.06;;;4.58;95.64
62978;BME280;49073;42.352;23.808;2023-03-03T11:43:40;94577.84;;;4.51;96.55
62978;BME280;49073;42.352;23.808;2023-03-03T11:47:28;94579.22;;;4.57;96.63
62978;BME280;49073;42.352;23.808;2023-03-03T11:51:05;94571.41;;;4.70;95.16
62978;BME280;49073;42.352;23.808;2023-03-03T11:54:08;94565.53;;;4.64;94.74
62978;BME280;49073;42.352;23.808;2023-03-03T12:00:41;94573.78;;;4.92;94.92
62978;BME280;49073;42.352;23.808;2023-03-03T12:03:55;94565.56;;;4.94;94.21
62978;BME280;49073;42.352;23.808;2023-03-03T12:10:26;94563.19;;;4.24;95.96
62978;BME280;49073;42.352;23.808;2023-03-03T12:13:35;94567.84;;;4.27;97.45
62978;BME280;49073;42.352;23.808;2023-03-03T12:27:09;94551.72;;;4.97;94.78
62978;BME280;49073;42.352;23.808;2023-03-03T12:30:24;94563.78;;;5.07;93.82
62978;BME280;49073;42.352;23.808;2023-03-03T12:46:58;94541.97;;;4.89;94.66
62978;BME280;49073;42.352;23.808;2023-03-03T12:56:54;94539.91;;;4.64;97.17
62978;BME280;49073;42.352;23.808;2023-03-03T13:00:14;94535.19;;;4.49;96.82
62978;BME280;49073;42.352;23.808;2023-03-03T13:16:30;94526.50;;;4.78;95.54
62978;BME280;49073;42.352;23.808;2023-03-03T13:19:40;94526.84;;;4.68;96.44
62978;BME280;49073;42.352;23.808;2023-03-03T13:22:54;94526.06;;;4.76;97.87
62978;BME280;49073;42.352;23.808;2023-03-03T13:26:06;94517.31;;;4.85;97.20
62978;BME280;49073;42.352;23.808;2023-03-03T13:29:18;94520.13;;;4.79;98.16
62978;BME280;49073;42.352;23.808;2023-03-03T13:35:50;94515.97;;;4.70;98.90
62978;BME280;49073;42.352;23.808;2023-03-03T13:38:56;94513.53;;;4.64;98.57
62978;BME280;49073;42.352;23.808;2023-03-03T13:45:02;94511.56;;;4.53;99.36
62978;BME280;49073;42.352;23.808;2023-03-03T13:55:16;94512.44;;;4.65;99.19
62978;BME280;49073;42.352;23.808;2023-03-03T14:05:40;94504.34;;;4.71;99.15
62978;BME280;49073;42.352;23.808;2023-03-03T14:12:27;94509.84;;;4.87;99.85
62978;BME280;49073;42.352;23.808;2023-03-03T14:15:33;94513.50;;;4.94;99.47
62978;BME280;49073;42.352;23.808;2023-03-03T14:28:11;94492.13;;;5.08;98.22
62978;BME280;49073;42.352;23.808;2023-03-03T14:31:19;94493.03;;;5.13;96.75
62978;BME280;49073;42.352;23.808;2023-03-03T14:34:39;94490.84;;;5.15;96.65
62978;BME280;49073;42.352;23.808;2023-03-03T14:37:45;94496.47;;;5.13;97.16
62978;BME280;49073;42.352;23.808;2023-03-03T14:40:47;94493.72;;;5.01;97.05
62978;BME280;49073;42.352;23.808;2023-03-03T14:44:00;94498.41;;;5.04;97.68
62978;BME280;49073;42.352;23.808;2023-03-03T14:53:38;94495.47;;;4.97;97.90
62978;BME280;49073;42.352;23.808;2023-03-03T15:00:03;94494.31;;;5.06;98.17
62978;BME280;49073;42.352;23.808;2023-03-03T15:03:26;94494.91;;;5.12;99.06
62978;BME280;49073;42.352;23.808;2023-03-03T15:09:40;94494.13;;;5.12;98.97
62978;BME280;49073;42.352;23.808;2023-03-03T15:12:48;94502.50;;;5.14;99.23
62978;BME280;49073;42.352;23.808;2023-03-03T15:15:50;94503.94;;;5.11;99.21
62978;BME280;49073;42.352;23.808;2023-03-03T15:25:34;94502.38;;;5.31;98.90
62978;BME280;49073;42.352;23.808;2023-03-03T15:29:01;94498.25;;;5.43;99.08
62978;BME280;49073;42.352;23.808;2023-03-03T15:32:21;94510.47;;;5.47;99.56
62978;BME280;49073;42.352;23.808;2023-03-03T15:38:57;94497.09;;;5.31;100.00
62978;BME280;49073;42.352;23.808;2023-03-03T15:42:14;94504.31;;;5.22;100.00
62978;BME280;49073;42.352;23.808;2023-03-03T15:45:46;94514.63;;;5.15;100.00
62978;BME280;49073;42.352;23.808;2023-03-03T15:48:56;94517.59;;;5.13;100.00
62978;BME280;49073;42.352;23.808;2023-03-03T15:52:20;94513.97;;;5.18;100.00
62978;BME280;49073;42.352;23.808;2023-03-03T16:02:23;94521.50;;;4.86;100.00
62978;BME280;49073;42.352;23.808;2023-03-03T16:08:59;94525.53;;;4.83;100.00
62978;BME280;49073;42.352;23.808;2023-03-03T16:15:39;94538.28;;;4.81;100.00
62978;BME280;49073;42.352;23.808;2023-03-03T16:19:01;94550.75;;;4.72;100.00
62978;BME280;49073;42.352;23.808;2023-03-03T16:29:03;94550.47;;;4.94;100.00
62978;BME280;49073;42.352;23.808;2023-03-03T16:35:41;94560.13;;;5.20;100.00
62978;BME280;49073;42.352;23.808;2023-03-03T16:42:31;94561.41;;;5.14;100.00
62978;BME280;49073;42.352;23.808;2023-03-03T16:45:29;94565.81;;;5.01;100.00
62978;BME280;49073;42.352;23.808;2023-03-03T16:52:16;94586.97;;;4.92;100.00
62978;BME280;49073;42.352;23.808;2023-03-03T17:05:23;94572.91;;;4.41;99.50
62978;BME280;49073;42.352;23.808;2023-03-03T17:09:11;94568.66;;;4.18;98.81
62978;BME280;49073;42.352;23.808;2023-03-03T17:12:46;94585.41;;;4.05;97.90
62978;BME280;49073;42.352;23.808;2023-03-03T17:28:37;94592.09;;;3.41;96.46
62978;BME280;49073;42.352;23.808;2023-03-03T17:35:32;94593.03;;;3.27;97.51
62978;BME280;49073;42.352;23.808;2023-03-03T17:42:46;94608.78;;;3.01;95.56
62978;BME280;49073;42.352;23.808;2023-03-03T17:45:53;94610.09;;;2.81;95.97
62978;BME280;49073;42.352;23.808;2023-03-03T18:08:42;94642.63;;;2.44;96.87
62978;BME280;49073;42.352;23.808;2023-03-03T18:12:02;94639.75;;;2.32;96.91
62978;BME280;49073;42.352;23.808;2023-03-03T18:15:38;94649.19;;;2.33;97.61
62978;BME280;49073;42.352;23.808;2023-03-03T18:25:09;94650.22;;;2.23;98.35
62978;BME280;49073;42.352;23.808;2023-03-03T18:28:44;94664.97;;;2.10;100.00
62978;BME280;49073;42.352;23.808;2023-03-03T18:35:32;94675.22;;;2.12;99.04
62978;BME280;49073;42.352;23.808;2023-03-03T18:38:37;94680.81;;;2.19;100.00
62978;BME280;49073;42.352;23.808;2023-03-03T18:51:50;94693.06;;;2.01;98.26
62978;BME280;49073;42.352;23.808;2023-03-03T19:01:34;94691.66;;;1.67;100.00
62978;BME280;49073;42.352;23.808;2023-03-03T19:04:43;94695.16;;;1.76;99.56
62978;BME280;49073;42.352;23.808;2023-03-03T19:07:59;94693.91;;;1.73;100.00
62978;BME280;49073;42.352;23.808;2023-03-03T19:11:01;94696.50;;;1.87;100.00
62978;BME280;49073;42.352;23.808;2023-03-03T19:20:41;94693.53;;;2.03;100.00
62978;BME280;49073;42.352;23.808;2023-03-03T19:23:51;94698.31;;;2.01;100.00
62978;BME280;49073;42.352;23.808;2023-03-03T19:27:17;94702.50;;;2.02;100.00
62978;BME280;49073;42.352;23.808;2023-03-03T19:33:52;94704.97;;;2.21;100.00
62978;BME280;49073;42.352;23.808;2023-03-03T19:40:48;94708.97;;;2.41;100.00
62978;BME280;49073;42.352;23.808;2023-03-03T19:50:42;94715.66;;;2.47;100.00
62978;BME280;49073;42.352;23.808;2023-03-03T19:57:15;94708.13;;;2.55;100.00
62978;BME280;49073;42.352;23.808;2023-03-03T20:03:43;94698.06;;;2.57;100.00
62978;BME280;49073;42.352;23.808;2023-03-03T20:16:41;94705.28;;;2.51;100.00
62978;BME280;49073;42.352;23.808;2023-03-03T20:24:01;94698.84;;;2.35;100.00
62978;BME280;49073;42.352;23.808;2023-03-03T20:27:16;94701.88;;;2.28;100.00
62978;BME280;49073;42.352;23.808;2023-03-03T20:30:26;94704.97;;;2.21;100.00
62978;BME280;49073;42.352;23.808;2023-03-03T20:40:09;94696.75;;;2.23;100.00
62978;BME280;49073;42.352;23.808;2023-03-03T20:46:39;94693.25;;;2.27;100.00
62978;BME280;49073;42.352;23.808;2023-03-03T20:50:01;94685.16;;;2.24;100.00
62978;BME280;49073;42.352;23.808;2023-03-03T20:53:23;94677.75;;;2.26;100.00
62978;BME280;49073;42.352;23.808;2023-03-03T20:59:54;94681.72;;;2.37;100.00
62978;BME280;49073;42.352;23.808;2023-03-03T21:06:36;94686.25;;;2.45;100.00
62978;BME280;49073;42.352;23.808;2023-03-03T21:09:38;94683.28;;;2.38;100.00
62978;BME280;49073;42.352;23.808;2023-03-03T21:12:38;94688.63;;;2.56;100.00
62978;BME280;49073;42.352;23.808;2023-03-03T21:15:39;94690.47;;;2.55;100.00
62978;BME280;49073;42.352;23.808;2023-03-03T21:18:39;94692.50;;;2.58;100.00
62978;BME280;49073;42.352;23.808;2023-03-03T21:21:43;94696.66;;;2.59;100.00
62978;BME280;49073;42.352;23.808;2023-03-03T21:24:52;94701.81;;;2.65;100.00
62978;BME280;49073;42.352;23.808;2023-03-03T21:28:32;94702.06;;;2.86;100.00
62978;BME280;49073;42.352;23.808;2023-03-03T21:31:55;94706.25;;;2.87;100.00
62978;BME280;49073;42.352;23.808;2023-03-03T21:35:08;94711.56;;;2.96;100.00
62978;BME280;49073;42.352;23.808;2023-03-03T21:38:09;94714.00;;;2.83;100.00
62978;BME280;49073;42.352;23.808;2023-03-03T21:41:09;94712.44;;;2.82;100.00
62978;BME280;49073;42.352;23.808;2023-03-03T21:44:36;94711.84;;;2.62;100.00
62978;BME280;49073;42.352;23.808;2023-03-03T21:47:36;94704.94;;;2.67;100.00
62978;BME280;49073;42.352;23.808;2023-03-03T21:50:37;94702.81;;;2.78;100.00
62978;BME280;49073;42.352;23.808;2023-03-03T21:53:41;94707.78;;;2.79;100.00
62978;BME280;49073;42.352;23.808;2023-03-03T21:56:43;94699.16;;;2.56;100.00
62978;BME280;49073;42.352;23.808;2023-03-03T21:59:43;94707.38;;;2.63;100.00
62978;BME280;49073;42.352;23.808;2023-03-03T22:02:44;94699.19;;;2.65;100.00
62978;BME280;49073;42.352;23.808;2023-03-03T22:05:45;94687.88;;;2.64;100.00
62978;BME280;49073;42.352;23.808;2023-03-03T22:08:46;94695.09;;;2.81;100.00
62978;BME280;49073;42.352;23.808;2023-03-03T22:11:47;94696.34;;;2.84;100.00
62978;BME280;49073;42.352;23.808;2023-03-03T22:14:48;94694.97;;;2.86;100.00
62978;BME280;49073;42.352;23.808;2023-03-03T22:17:48;94692.34;;;2.86;100.00